sensor_id;sensor_type;location;lat;lon;timestamp;temperature;humidity
62575;DHT22;70119;45.638;11.714;2023-12-20T00:01:48;19.70;51.10
62575;DHT22;70119;45.638;11.714;2023-12-20T00:04:14;19.60;51.10
62575;DHT22;70119;45.638;11.714;2023-12-20T00:06:40;19.60;51.10
62575;DHT22;70119;45.638;11.714;2023-12-20T00:09:06;19.60;51.10
62575;DHT22;70119;45.638;11.714;2023-12-20T00:11:32;19.60;51.20
62575;DHT22;70119;45.638;11.714;2023-12-20T00:13:58;19.60;51.20
62575;DHT22;70119;45.638;11.714;2023-12-20T00:16:23;19.60;51.20
62575;DHT22;70119;45.638;11.714;2023-12-20T00:18:49;19.60;51.20
62575;DHT22;70119;45.638;11.714;2023-12-20T00:21:15;19.60;51.20
62575;DHT22;70119;45.638;11.714;2023-12-20T00:23:41;19.70;51.20
62575;DHT22;70119;45.638;11.714;2023-12-20T00:26:07;19.60;51.20
62575;DHT22;70119;45.638;11.714;2023-12-20T00:28:33;19.60;51.30
62575;DHT22;70119;45.638;11.714;2023-12-20T00:30:58;19.60;51.30
62575;DHT22;70119;45.638;11.714;2023-12-20T00:33:24;19.60;51.30
62575;DHT22;70119;45.638;11.714;2023-12-20T00:35:50;19.60;51.30
62575;DHT22;70119;45.638;11.714;2023-12-20T00:38:16;19.60;51.30
62575;DHT22;70119;45.638;11.714;2023-12-20T00:40:42;19.60;51.30
62575;DHT22;70119;45.638;11.714;2023-12-20T00:43:07;19.60;51.40
62575;DHT22;70119;45.638;11.714;2023-12-20T00:45:33;19.60;51.40
62575;DHT22;70119;45.638;11.714;2023-12-20T00:47:59;19.50;51.40
62575;DHT22;70119;45.638;11.714;2023-12-20T00:50:25;19.50;51.40
62575;DHT22;70119;45.638;11.714;2023-12-20T00:52:51;19.50;51.40
62575;DHT22;70119;45.638;11.714;2023-12-20T00:55:17;19.50;51.40
62575;DHT22;70119;45.638;11.714;2023-12-20T00:57:42;19.50;51.40
62575;DHT22;70119;45.638;11.714;2023-12-20T01:00:09;19.50;51.40
62575;DHT22;70119;45.638;11.714;2023-12-20T01:02:39;19.50;51.40
62575;DHT22;70119;45.638;11.714;2023-12-20T01:05:05;19.50;51.40
62575;DHT22;70119;45.638;11.714;2023-12-20T01:07:32;19.50;51.40
62575;DHT22;70119;45.638;11.714;2023-12-20T01:09:58;19.50;51.40
62575;DHT22;70119;45.638;11.714;2023-12-20T01:12:24;19.50;51.50
62575;DHT22;70119;45.638;11.714;2023-12-20T01:14:50;19.50;51.50
62575;DHT22;70119;45.638;11.714;2023-12-20T01:17:16;19.50;51.50
62575;DHT22;70119;45.638;11.714;2023-12-20T01:19:41;19.50;51.50
62575;DHT22;70119;45.638;11.714;2023-12-20T01:22:07;19.50;51.40
62575;DHT22;70119;45.638;11.714;2023-12-20T01:24:33;19.50;51.40
62575;DHT22;70119;45.638;11.714;2023-12-20T01:26:59;19.50;51.40
62575;DHT22;70119;45.638;11.714;2023-12-20T01:29:25;19.50;51.40
62575;DHT22;70119;45.638;11.714;2023-12-20T01:31:51;19.40;51.40
62575;DHT22;70119;45.638;11.714;2023-12-20T01:34:17;19.40;51.40
62575;DHT22;70119;45.638;11.714;2023-12-20T01:36:43;19.40;51.40
62575;DHT22;70119;45.638;11.714;2023-12-20T01:39:09;19.40;51.40
62575;DHT22;70119;45.638;11.714;2023-12-20T01:41:34;19.40;51.40
62575;DHT22;70119;45.638;11.714;2023-12-20T01:44:00;19.40;51.50
62575;DHT22;70119;45.638;11.714;2023-12-20T01:46:26;19.40;51.60
62575;DHT22;70119;45.638;11.714;2023-12-20T01:48:52;19.40;51.60
62575;DHT22;70119;45.638;11.714;2023-12-20T01:51:19;19.40;51.50
62575;DHT22;70119;45.638;11.714;2023-12-20T01:53:46;19.40;51.50
62575;DHT22;70119;45.638;11.714;2023-12-20T01:56:13;19.40;51.50
62575;DHT22;70119;45.638;11.714;2023-12-20T01:58:44;19.40;51.50
62575;DHT22;70119;45.638;11.714;2023-12-20T02:01:11;19.40;51.50
62575;DHT22;70119;45.638;11.714;2023-12-20T02:03:37;19.40;51.50
62575;DHT22;70119;45.638;11.714;2023-12-20T02:06:04;19.40;51.50
62575;DHT22;70119;45.638;11.714;2023-12-20T02:08:30;19.40;51.50
62575;DHT22;70119;45.638;11.714;2023-12-20T02:10:56;19.30;51.50
62575;DHT22;70119;45.638;11.714;2023-12-20T02:13:22;19.30;51.60
62575;DHT22;70119;45.638;11.714;2023-12-20T02:15:48;19.30;51.60
62575;DHT22;70119;45.638;11.714;2023-12-20T02:18:14;19.30;51.50
62575;DHT22;70119;45.638;11.714;2023-12-20T02:20:42;19.30;51.50
62575;DHT22;70119;45.638;11.714;2023-12-20T02:23:08;19.30;51.50
62575;DHT22;70119;45.638;11.714;2023-12-20T02:25:34;19.30;51.50
62575;DHT22;70119;45.638;11.714;2023-12-20T02:28:00;19.30;51.50
62575;DHT22;70119;45.638;11.714;2023-12-20T02:30:26;19.30;51.50
62575;DHT22;70119;45.638;11.714;2023-12-20T02:32:53;19.30;51.60
62575;DHT22;70119;45.638;11.714;2023-12-20T02:35:19;19.30;51.50
62575;DHT22;70119;45.638;11.714;2023-12-20T02:37:45;19.30;51.50
62575;DHT22;70119;45.638;11.714;2023-12-20T02:40:10;19.30;51.50
62575;DHT22;70119;45.638;11.714;2023-12-20T02:42:37;19.30;51.50
62575;DHT22;70119;45.638;11.714;2023-12-20T02:45:03;19.30;51.50
62575;DHT22;70119;45.638;11.714;2023-12-20T02:47:28;19.20;51.50
62575;DHT22;70119;45.638;11.714;2023-12-20T02:49:55;19.20;51.50
62575;DHT22;70119;45.638;11.714;2023-12-20T02:52:25;19.20;51.60
62575;DHT22;70119;45.638;11.714;2023-12-20T02:54:50;19.20;51.50
62575;DHT22;70119;45.638;11.714;2023-12-20T02:57:16;19.30;51.50
62575;DHT22;70119;45.638;11.714;2023-12-20T02:59:42;19.20;51.50
62575;DHT22;70119;45.638;11.714;2023-12-20T03:02:08;19.20;51.50
62575;DHT22;70119;45.638;11.714;2023-12-20T03:04:34;19.30;51.50
62575;DHT22;70119;45.638;11.714;2023-12-20T03:07:00;19.20;51.40
62575;DHT22;70119;45.638;11.714;2023-12-20T03:09:25;19.20;51.50
62575;DHT22;70119;45.638;11.714;2023-12-20T03:11:51;19.20;51.40
62575;DHT22;70119;45.638;11.714;2023-12-20T03:14:17;19.20;51.40
62575;DHT22;70119;45.638;11.714;2023-12-20T03:16:49;19.30;51.40
62575;DHT22;70119;45.638;11.714;2023-12-20T03:19:16;19.20;51.40
62575;DHT22;70119;45.638;11.714;2023-12-20T03:21:42;19.20;51.40
62575;DHT22;70119;45.638;11.714;2023-12-20T03:24:07;19.20;51.40
62575;DHT22;70119;45.638;11.714;2023-12-20T03:26:33;19.20;51.30
62575;DHT22;70119;45.638;11.714;2023-12-20T03:28:59;19.20;51.40
62575;DHT22;70119;45.638;11.714;2023-12-20T03:31:25;19.20;51.40
62575;DHT22;70119;45.638;11.714;2023-12-20T03:33:51;19.20;51.40
62575;DHT22;70119;45.638;11.714;2023-12-20T03:36:19;19.20;51.40
62575;DHT22;70119;45.638;11.714;2023-12-20T03:38:45;19.20;51.40
62575;DHT22;70119;45.638;11.714;2023-12-20T03:41:11;19.10;51.40
62575;DHT22;70119;45.638;11.714;2023-12-20T03:43:37;19.20;51.40
62575;DHT22;70119;45.638;11.714;2023-12-20T03:46:03;19.20;51.40
62575;DHT22;70119;45.638;11.714;2023-12-20T03:48:30;19.10;51.40
62575;DHT22;70119;45.638;11.714;2023-12-20T03:50:57;19.10;51.40
62575;DHT22;70119;45.638;11.714;2023-12-20T03:53:23;19.10;51.40
62575;DHT22;70119;45.638;11.714;2023-12-20T03:55:48;19.10;51.50
62575;DHT22;70119;45.638;11.714;2023-12-20T03:58:14;19.10;51.40
62575;DHT22;70119;45.638;11.714;2023-12-20T04:00:40;19.10;51.40
62575;DHT22;70119;45.638;11.714;2023-12-20T04:03:06;19.10;51.50
62575;DHT22;70119;45.638;11.714;2023-12-20T04:05:32;19.10;51.50
62575;DHT22;70119;45.638;11.714;2023-12-20T04:07:59;19.10;51.40
62575;DHT22;70119;45.638;11.714;2023-12-20T04:10:25;19.10;51.50
62575;DHT22;70119;45.638;11.714;2023-12-20T04:12:51;19.00;51.60
62575;DHT22;70119;45.638;11.714;2023-12-20T04:15:16;19.00;51.60
62575;DHT22;70119;45.638;11.714;2023-12-20T04:17:42;19.10;51.60
62575;DHT22;70119;45.638;11.714;2023-12-20T04:20:08;19.10;51.50
62575;DHT22;70119;45.638;11.714;2023-12-20T04:22:34;19.10;51.50
62575;DHT22;70119;45.638;11.714;2023-12-20T04:25:00;19.10;51.50
62575;DHT22;70119;45.638;11.714;2023-12-20T04:27:26;19.10;51.40
62575;DHT22;70119;45.638;11.714;2023-12-20T04:29:52;19.10;51.40
62575;DHT22;70119;45.638;11.714;2023-12-20T04:32:18;19.00;51.50
62575;DHT22;70119;45.638;11.714;2023-12-20T04:34:44;19.00;51.50
62575;DHT22;70119;45.638;11.714;2023-12-20T04:37:09;19.10;51.40
62575;DHT22;70119;45.638;11.714;2023-12-20T04:39:35;19.10;51.50
62575;DHT22;70119;45.638;11.714;2023-12-20T04:42:01;19.00;51.50
62575;DHT22;70119;45.638;11.714;2023-12-20T04:44:27;19.00;51.50
62575;DHT22;70119;45.638;11.714;2023-12-20T04:46:53;19.00;51.50
62575;DHT22;70119;45.638;11.714;2023-12-20T04:49:19;19.00;51.40
62575;DHT22;70119;45.638;11.714;2023-12-20T04:51:44;19.00;51.40
62575;DHT22;70119;45.638;11.714;2023-12-20T04:54:10;19.00;51.40
62575;DHT22;70119;45.638;11.714;2023-12-20T04:56:36;19.00;51.40
62575;DHT22;70119;45.638;11.714;2023-12-20T04:59:02;19.10;51.50
62575;DHT22;70119;45.638;11.714;2023-12-20T05:01:27;19.00;51.50
62575;DHT22;70119;45.638;11.714;2023-12-20T05:03:53;19.00;51.40
62575;DHT22;70119;45.638;11.714;2023-12-20T05:06:19;19.00;51.40
62575;DHT22;70119;45.638;11.714;2023-12-20T05:08:45;19.00;51.40
62575;DHT22;70119;45.638;11.714;2023-12-20T05:11:11;19.00;51.40
62575;DHT22;70119;45.638;11.714;2023-12-20T05:13:39;19.00;51.40
62575;DHT22;70119;45.638;11.714;2023-12-20T05:16:05;19.00;51.40
62575;DHT22;70119;45.638;11.714;2023-12-20T05:18:31;19.00;51.40
62575;DHT22;70119;45.638;11.714;2023-12-20T05:20:57;19.00;51.50
62575;DHT22;70119;45.638;11.714;2023-12-20T05:23:23;19.00;51.40
62575;DHT22;70119;45.638;11.714;2023-12-20T05:25:49;19.00;51.40
62575;DHT22;70119;45.638;11.714;2023-12-20T05:28:15;19.00;51.30
62575;DHT22;70119;45.638;11.714;2023-12-20T05:30:41;18.90;51.40
62575;DHT22;70119;45.638;11.714;2023-12-20T05:33:07;18.90;51.50
62575;DHT22;70119;45.638;11.714;2023-12-20T05:35:33;18.90;51.50
62575;DHT22;70119;45.638;11.714;2023-12-20T05:37:58;18.90;51.50
62575;DHT22;70119;45.638;11.714;2023-12-20T05:40:24;18.90;51.60
62575;DHT22;70119;45.638;11.714;2023-12-20T05:42:50;18.90;51.60
62575;DHT22;70119;45.638;11.714;2023-12-20T05:45:16;18.90;51.50
62575;DHT22;70119;45.638;11.714;2023-12-20T05:47:42;19.00;51.30
62575;DHT22;70119;45.638;11.714;2023-12-20T05:50:08;19.00;51.20
62575;DHT22;70119;45.638;11.714;2023-12-20T05:52:34;19.00;51.10
62575;DHT22;70119;45.638;11.714;2023-12-20T05:55:00;19.10;51.10
62575;DHT22;70119;45.638;11.714;2023-12-20T05:57:29;19.10;51.10
62575;DHT22;70119;45.638;11.714;2023-12-20T05:59:54;19.00;51.20
62575;DHT22;70119;45.638;11.714;2023-12-20T06:02:20;19.00;51.20
62575;DHT22;70119;45.638;11.714;2023-12-20T06:04:46;19.00;51.10
62575;DHT22;70119;45.638;11.714;2023-12-20T06:07:12;19.00;51.00
62575;DHT22;70119;45.638;11.714;2023-12-20T06:09:39;19.00;51.00
62575;DHT22;70119;45.638;11.714;2023-12-20T06:12:05;19.00;51.00
62575;DHT22;70119;45.638;11.714;2023-12-20T06:14:31;19.00;51.00
62575;DHT22;70119;45.638;11.714;2023-12-20T06:16:57;19.00;50.90
62575;DHT22;70119;45.638;11.714;2023-12-20T06:19:23;19.00;50.90
62575;DHT22;70119;45.638;11.714;2023-12-20T06:21:50;19.00;50.90
62575;DHT22;70119;45.638;11.714;2023-12-20T06:24:16;18.90;50.90
62575;DHT22;70119;45.638;11.714;2023-12-20T06:26:42;19.00;50.90
62575;DHT22;70119;45.638;11.714;2023-12-20T06:29:08;18.90;50.90
62575;DHT22;70119;45.638;11.714;2023-12-20T06:31:35;18.90;50.40
62575;DHT22;70119;45.638;11.714;2023-12-20T06:34:01;18.90;50.10
62575;DHT22;70119;45.638;11.714;2023-12-20T06:36:28;18.90;50.20
62575;DHT22;70119;45.638;11.714;2023-12-20T06:38:56;18.90;50.20
62575;DHT22;70119;45.638;11.714;2023-12-20T06:41:25;18.90;50.60
62575;DHT22;70119;45.638;11.714;2023-12-20T06:43:56;18.90;50.80
62575;DHT22;70119;45.638;11.714;2023-12-20T06:46:25;18.90;50.90
62575;DHT22;70119;45.638;11.714;2023-12-20T06:48:51;18.90;50.90
62575;DHT22;70119;45.638;11.714;2023-12-20T06:51:17;18.90;50.90
62575;DHT22;70119;45.638;11.714;2023-12-20T06:53:45;18.90;50.70
62575;DHT22;70119;45.638;11.714;2023-12-20T06:56:12;18.90;50.10
62575;DHT22;70119;45.638;11.714;2023-12-20T06:58:42;18.90;50.30
62575;DHT22;70119;45.638;11.714;2023-12-20T07:01:15;18.90;50.70
62575;DHT22;70119;45.638;11.714;2023-12-20T07:03:41;18.90;50.80
62575;DHT22;70119;45.638;11.714;2023-12-20T07:06:07;18.90;50.90
62575;DHT22;70119;45.638;11.714;2023-12-20T07:08:33;18.90;51.00
62575;DHT22;70119;45.638;11.714;2023-12-20T07:10:59;18.90;51.10
62575;DHT22;70119;45.638;11.714;2023-12-20T07:13:25;18.90;51.10
62575;DHT22;70119;45.638;11.714;2023-12-20T07:15:51;18.90;51.20
62575;DHT22;70119;45.638;11.714;2023-12-20T07:18:17;18.90;51.20
62575;DHT22;70119;45.638;11.714;2023-12-20T07:20:45;18.90;51.20
62575;DHT22;70119;45.638;11.714;2023-12-20T07:23:14;18.90;51.20
62575;DHT22;70119;45.638;11.714;2023-12-20T07:25:39;18.90;51.20
62575;DHT22;70119;45.638;11.714;2023-12-20T07:28:05;18.90;51.20
62575;DHT22;70119;45.638;11.714;2023-12-20T07:30:31;18.90;51.20
62575;DHT22;70119;45.638;11.714;2023-12-20T07:32:58;18.90;51.30
62575;DHT22;70119;45.638;11.714;2023-12-20T07:35:24;18.90;51.30
62575;DHT22;70119;45.638;11.714;2023-12-20T07:37:52;18.90;51.20
62575;DHT22;70119;45.638;11.714;2023-12-20T07:40:21;18.90;51.30
62575;DHT22;70119;45.638;11.714;2023-12-20T07:42:49;18.90;51.30
62575;DHT22;70119;45.638;11.714;2023-12-20T07:45:15;18.90;51.30
62575;DHT22;70119;45.638;11.714;2023-12-20T07:47:41;18.90;51.30
62575;DHT22;70119;45.638;11.714;2023-12-20T07:50:07;18.90;51.30
62575;DHT22;70119;45.638;11.714;2023-12-20T07:52:32;18.90;51.30
62575;DHT22;70119;45.638;11.714;2023-12-20T07:54:58;18.90;51.20
62575;DHT22;70119;45.638;11.714;2023-12-20T07:57:24;18.90;51.20
62575;DHT22;70119;45.638;11.714;2023-12-20T07:59:50;18.90;51.20
62575;DHT22;70119;45.638;11.714;2023-12-20T08:02:16;18.90;51.30
62575;DHT22;70119;45.638;11.714;2023-12-20T08:04:42;18.90;51.30
62575;DHT22;70119;45.638;11.714;2023-12-20T08:07:08;18.90;51.20
62575;DHT22;70119;45.638;11.714;2023-12-20T08:09:34;18.90;51.20
62575;DHT22;70119;45.638;11.714;2023-12-20T08:12:02;18.90;51.20
62575;DHT22;70119;45.638;11.714;2023-12-20T08:14:28;18.90;51.20
62575;DHT22;70119;45.638;11.714;2023-12-20T08:16:54;18.90;51.20
62575;DHT22;70119;45.638;11.714;2023-12-20T08:19:20;18.90;51.40
62575;DHT22;70119;45.638;11.714;2023-12-20T08:21:45;18.90;51.30
62575;DHT22;70119;45.638;11.714;2023-12-20T08:24:11;18.90;51.30
62575;DHT22;70119;45.638;11.714;2023-12-20T08:26:37;18.90;51.30
62575;DHT22;70119;45.638;11.714;2023-12-20T08:29:03;18.90;51.30
62575;DHT22;70119;45.638;11.714;2023-12-20T08:31:29;18.90;51.30
62575;DHT22;70119;45.638;11.714;2023-12-20T08:33:55;18.90;51.30
62575;DHT22;70119;45.638;11.714;2023-12-20T08:36:21;18.90;51.30
62575;DHT22;70119;45.638;11.714;2023-12-20T08:38:48;18.90;51.30
62575;DHT22;70119;45.638;11.714;2023-12-20T08:41:14;18.90;51.30
62575;DHT22;70119;45.638;11.714;2023-12-20T08:43:39;18.90;51.20
62575;DHT22;70119;45.638;11.714;2023-12-20T08:46:06;18.90;51.30
62575;DHT22;70119;45.638;11.714;2023-12-20T08:48:31;18.90;51.30
62575;DHT22;70119;45.638;11.714;2023-12-20T08:50:57;19.00;51.20
62575;DHT22;70119;45.638;11.714;2023-12-20T08:53:23;19.00;51.20
62575;DHT22;70119;45.638;11.714;2023-12-20T08:55:50;19.00;51.30
62575;DHT22;70119;45.638;11.714;2023-12-20T08:58:16;19.10;51.10
62575;DHT22;70119;45.638;11.714;2023-12-20T09:00:42;19.10;51.10
62575;DHT22;70119;45.638;11.714;2023-12-20T09:03:08;19.10;51.10
62575;DHT22;70119;45.638;11.714;2023-12-20T09:05:34;19.10;51.00
62575;DHT22;70119;45.638;11.714;2023-12-20T09:08:00;19.10;51.00
62575;DHT22;70119;45.638;11.714;2023-12-20T09:10:26;19.10;51.00
62575;DHT22;70119;45.638;11.714;2023-12-20T09:12:52;19.10;51.00
62575;DHT22;70119;45.638;11.714;2023-12-20T09:15:24;19.10;51.00
62575;DHT22;70119;45.638;11.714;2023-12-20T09:17:50;19.10;51.00
62575;DHT22;70119;45.638;11.714;2023-12-20T09:20:16;19.20;51.00
62575;DHT22;70119;45.638;11.714;2023-12-20T09:22:42;19.10;50.90
62575;DHT22;70119;45.638;11.714;2023-12-20T09:25:09;19.20;51.00
62575;DHT22;70119;45.638;11.714;2023-12-20T09:27:36;19.20;50.90
62575;DHT22;70119;45.638;11.714;2023-12-20T09:30:02;19.20;50.90
62575;DHT22;70119;45.638;11.714;2023-12-20T09:32:29;19.10;50.90
62575;DHT22;70119;45.638;11.714;2023-12-20T09:34:55;19.20;50.90
62575;DHT22;70119;45.638;11.714;2023-12-20T09:37:21;19.20;50.90
62575;DHT22;70119;45.638;11.714;2023-12-20T09:39:47;19.20;50.90
62575;DHT22;70119;45.638;11.714;2023-12-20T09:42:20;19.20;50.90
62575;DHT22;70119;45.638;11.714;2023-12-20T09:44:47;19.20;51.00
62575;DHT22;70119;45.638;11.714;2023-12-20T09:47:14;19.20;51.00
62575;DHT22;70119;45.638;11.714;2023-12-20T09:49:42;19.20;51.00
62575;DHT22;70119;45.638;11.714;2023-12-20T09:52:09;19.20;51.00
62575;DHT22;70119;45.638;11.714;2023-12-20T09:54:36;19.20;51.10
62575;DHT22;70119;45.638;11.714;2023-12-20T09:57:02;19.20;51.10
62575;DHT22;70119;45.638;11.714;2023-12-20T09:59:29;19.20;51.10
62575;DHT22;70119;45.638;11.714;2023-12-20T10:01:56;19.20;51.20
62575;DHT22;70119;45.638;11.714;2023-12-20T10:04:22;19.20;51.30
62575;DHT22;70119;45.638;11.714;2023-12-20T10:06:48;19.10;51.20
62575;DHT22;70119;45.638;11.714;2023-12-20T10:09:14;19.20;51.30
62575;DHT22;70119;45.638;11.714;2023-12-20T10:11:40;19.20;51.30
62575;DHT22;70119;45.638;11.714;2023-12-20T10:14:07;19.20;51.30
62575;DHT22;70119;45.638;11.714;2023-12-20T10:16:33;19.20;51.30
62575;DHT22;70119;45.638;11.714;2023-12-20T10:19:00;19.10;51.40
62575;DHT22;70119;45.638;11.714;2023-12-20T10:21:27;19.20;51.40
62575;DHT22;70119;45.638;11.714;2023-12-20T10:23:56;19.20;51.40
62575;DHT22;70119;45.638;11.714;2023-12-20T10:26:24;19.10;51.40
62575;DHT22;70119;45.638;11.714;2023-12-20T10:29:02;19.10;51.40
62575;DHT22;70119;45.638;11.714;2023-12-20T10:31:33;19.10;51.50
62575;DHT22;70119;45.638;11.714;2023-12-20T10:34:01;19.10;51.50
62575;DHT22;70119;45.638;11.714;2023-12-20T10:36:29;19.10;51.50
62575;DHT22;70119;45.638;11.714;2023-12-20T10:38:56;19.10;51.50
62575;DHT22;70119;45.638;11.714;2023-12-20T10:41:31;19.10;51.50
62575;DHT22;70119;45.638;11.714;2023-12-20T10:44:02;19.10;51.60
62575;DHT22;70119;45.638;11.714;2023-12-20T10:46:29;19.10;51.50
62575;DHT22;70119;45.638;11.714;2023-12-20T10:48:56;19.10;51.50
62575;DHT22;70119;45.638;11.714;2023-12-20T10:51:23;19.10;51.60
62575;DHT22;70119;45.638;11.714;2023-12-20T10:53:51;19.10;51.60
62575;DHT22;70119;45.638;11.714;2023-12-20T10:56:18;19.20;51.50
62575;DHT22;70119;45.638;11.714;2023-12-20T10:58:46;19.10;51.60
62575;DHT22;70119;45.638;11.714;2023-12-20T11:01:14;19.10;51.60
62575;DHT22;70119;45.638;11.714;2023-12-20T11:03:53;19.10;51.60
62575;DHT22;70119;45.638;11.714;2023-12-20T11:06:43;19.10;51.60
62575;DHT22;70119;45.638;11.714;2023-12-20T11:09:22;19.10;51.80
62575;DHT22;70119;45.638;11.714;2023-12-20T11:12:16;19.10;52.10
62575;DHT22;70119;45.638;11.714;2023-12-20T11:14:52;19.10;52.00
62575;DHT22;70119;45.638;11.714;2023-12-20T11:17:18;19.10;51.80
62575;DHT22;70119;45.638;11.714;2023-12-20T11:22:26;19.10;52.00
62575;DHT22;70119;45.638;11.714;2023-12-20T11:24:53;19.10;51.80
62575;DHT22;70119;45.638;11.714;2023-12-20T11:27:21;19.10;51.90
62575;DHT22;70119;45.638;11.714;2023-12-20T11:29:56;19.10;51.90
62575;DHT22;70119;45.638;11.714;2023-12-20T11:37:21;19.10;51.90
62575;DHT22;70119;45.638;11.714;2023-12-20T11:40:07;19.10;51.90
62575;DHT22;70119;45.638;11.714;2023-12-20T11:42:51;19.10;52.00
62575;DHT22;70119;45.638;11.714;2023-12-20T11:45:19;19.10;52.00
62575;DHT22;70119;45.638;11.714;2023-12-20T11:47:49;19.10;51.90
62575;DHT22;70119;45.638;11.714;2023-12-20T11:50:16;19.10;51.90
62575;DHT22;70119;45.638;11.714;2023-12-20T11:52:42;19.10;51.80
62575;DHT22;70119;45.638;11.714;2023-12-20T11:55:08;19.10;51.90
62575;DHT22;70119;45.638;11.714;2023-12-20T11:57:34;19.10;51.90
62575;DHT22;70119;45.638;11.714;2023-12-20T12:00:00;19.10;51.50
62575;DHT22;70119;45.638;11.714;2023-12-20T12:02:26;19.10;51.30
62575;DHT22;70119;45.638;11.714;2023-12-20T12:04:52;19.00;51.10
62575;DHT22;70119;45.638;11.714;2023-12-20T12:07:17;19.00;51.10
62575;DHT22;70119;45.638;11.714;2023-12-20T12:09:44;19.00;51.40
62575;DHT22;70119;45.638;11.714;2023-12-20T12:12:11;19.00;51.40
62575;DHT22;70119;45.638;11.714;2023-12-20T12:14:38;19.00;51.50
62575;DHT22;70119;45.638;11.714;2023-12-20T12:17:04;19.00;51.60
62575;DHT22;70119;45.638;11.714;2023-12-20T12:19:30;19.00;51.70
62575;DHT22;70119;45.638;11.714;2023-12-20T12:22:05;19.00;51.70
62575;DHT22;70119;45.638;11.714;2023-12-20T12:24:43;19.00;51.60
62575;DHT22;70119;45.638;11.714;2023-12-20T12:27:11;19.00;51.30
62575;DHT22;70119;45.638;11.714;2023-12-20T12:29:37;19.00;51.30
62575;DHT22;70119;45.638;11.714;2023-12-20T12:32:08;19.00;51.30
62575;DHT22;70119;45.638;11.714;2023-12-20T12:34:35;19.00;51.40
62575;DHT22;70119;45.638;11.714;2023-12-20T12:37:03;19.00;51.50
62575;DHT22;70119;45.638;11.714;2023-12-20T12:39:29;19.00;51.60
62575;DHT22;70119;45.638;11.714;2023-12-20T12:41:56;19.00;51.80
62575;DHT22;70119;45.638;11.714;2023-12-20T12:44:25;19.00;51.90
62575;DHT22;70119;45.638;11.714;2023-12-20T12:46:51;19.00;52.00
62575;DHT22;70119;45.638;11.714;2023-12-20T12:49:19;19.00;52.10
62575;DHT22;70119;45.638;11.714;2023-12-20T12:51:45;19.00;52.20
62575;DHT22;70119;45.638;11.714;2023-12-20T12:54:12;19.00;52.20
62575;DHT22;70119;45.638;11.714;2023-12-20T12:56:39;19.00;52.30
62575;DHT22;70119;45.638;11.714;2023-12-20T12:59:05;19.00;52.30
62575;DHT22;70119;45.638;11.714;2023-12-20T13:01:31;19.00;52.20
62575;DHT22;70119;45.638;11.714;2023-12-20T13:03:57;19.00;52.10
62575;DHT22;70119;45.638;11.714;2023-12-20T13:06:23;19.00;52.00
62575;DHT22;70119;45.638;11.714;2023-12-20T13:08:49;19.00;51.90
62575;DHT22;70119;45.638;11.714;2023-12-20T13:11:15;19.00;51.90
62575;DHT22;70119;45.638;11.714;2023-12-20T13:13:41;19.00;51.90
62575;DHT22;70119;45.638;11.714;2023-12-20T13:16:07;19.00;51.90
62575;DHT22;70119;45.638;11.714;2023-12-20T13:18:33;19.00;51.80
62575;DHT22;70119;45.638;11.714;2023-12-20T13:20:59;19.00;51.70
62575;DHT22;70119;45.638;11.714;2023-12-20T13:23:25;19.00;51.60
62575;DHT22;70119;45.638;11.714;2023-12-20T13:25:51;19.00;51.60
62575;DHT22;70119;45.638;11.714;2023-12-20T13:28:16;19.00;51.60
62575;DHT22;70119;45.638;11.714;2023-12-20T13:30:43;19.00;51.80
62575;DHT22;70119;45.638;11.714;2023-12-20T13:33:09;19.00;51.90
62575;DHT22;70119;45.638;11.714;2023-12-20T13:35:35;19.00;52.00
62575;DHT22;70119;45.638;11.714;2023-12-20T13:38:01;19.00;52.20
62575;DHT22;70119;45.638;11.714;2023-12-20T13:40:27;19.10;52.30
62575;DHT22;70119;45.638;11.714;2023-12-20T13:42:54;19.10;52.40
62575;DHT22;70119;45.638;11.714;2023-12-20T13:45:20;19.10;52.50
62575;DHT22;70119;45.638;11.714;2023-12-20T13:47:46;19.10;52.50
62575;DHT22;70119;45.638;11.714;2023-12-20T13:50:12;19.10;52.50
62575;DHT22;70119;45.638;11.714;2023-12-20T13:52:39;19.10;52.50
62575;DHT22;70119;45.638;11.714;2023-12-20T13:55:05;19.10;52.50
62575;DHT22;70119;45.638;11.714;2023-12-20T13:57:33;19.10;52.40
62575;DHT22;70119;45.638;11.714;2023-12-20T14:00:00;19.10;52.40
62575;DHT22;70119;45.638;11.714;2023-12-20T14:02:27;19.20;52.30
62575;DHT22;70119;45.638;11.714;2023-12-20T14:04:53;19.20;52.40
62575;DHT22;70119;45.638;11.714;2023-12-20T14:07:19;19.10;52.50
62575;DHT22;70119;45.638;11.714;2023-12-20T14:09:46;19.20;52.50
62575;DHT22;70119;45.638;11.714;2023-12-20T14:12:14;19.10;52.30
62575;DHT22;70119;45.638;11.714;2023-12-20T14:14:42;19.10;52.30
62575;DHT22;70119;45.638;11.714;2023-12-20T14:17:10;19.20;52.30
62575;DHT22;70119;45.638;11.714;2023-12-20T14:19:36;19.20;52.30
62575;DHT22;70119;45.638;11.714;2023-12-20T14:22:02;19.20;52.20
62575;DHT22;70119;45.638;11.714;2023-12-20T14:24:30;19.20;52.20
62575;DHT22;70119;45.638;11.714;2023-12-20T14:26:55;19.20;52.30
62575;DHT22;70119;45.638;11.714;2023-12-20T14:29:21;19.20;52.30
62575;DHT22;70119;45.638;11.714;2023-12-20T14:31:47;19.20;52.30
62575;DHT22;70119;45.638;11.714;2023-12-20T14:34:15;19.20;52.30
62575;DHT22;70119;45.638;11.714;2023-12-20T14:36:42;19.10;52.30
62575;DHT22;70119;45.638;11.714;2023-12-20T14:39:07;19.20;52.30
62575;DHT22;70119;45.638;11.714;2023-12-20T14:41:34;19.20;52.30
62575;DHT22;70119;45.638;11.714;2023-12-20T14:44:00;19.20;52.30
62575;DHT22;70119;45.638;11.714;2023-12-20T14:46:26;19.20;52.40
62575;DHT22;70119;45.638;11.714;2023-12-20T14:48:52;19.20;52.50
62575;DHT22;70119;45.638;11.714;2023-12-20T14:51:19;19.20;52.40
62575;DHT22;70119;45.638;11.714;2023-12-20T14:53:45;19.20;52.30
62575;DHT22;70119;45.638;11.714;2023-12-20T14:56:12;19.20;52.30
62575;DHT22;70119;45.638;11.714;2023-12-20T14:58:38;19.20;52.30
62575;DHT22;70119;45.638;11.714;2023-12-20T15:01:04;19.20;52.30
62575;DHT22;70119;45.638;11.714;2023-12-20T15:03:32;19.20;52.30
62575;DHT22;70119;45.638;11.714;2023-12-20T15:05:58;19.20;52.30
62575;DHT22;70119;45.638;11.714;2023-12-20T15:08:25;19.20;52.40
62575;DHT22;70119;45.638;11.714;2023-12-20T15:10:51;19.20;52.50
62575;DHT22;70119;45.638;11.714;2023-12-20T15:13:17;19.20;52.60
62575;DHT22;70119;45.638;11.714;2023-12-20T15:15:43;19.20;52.70
62575;DHT22;70119;45.638;11.714;2023-12-20T15:18:08;19.20;52.70
62575;DHT22;70119;45.638;11.714;2023-12-20T15:20:34;19.20;52.60